Terminal Aerodrome Forecast
Issued by NWS El Paso, TX

Home | Current Version | Previous Version | Text Only | Print | Product List | Glossary On
Versions: 1 2 3 4 5 6 7 8 9 10 11 12 13 14
000
FTUS44 KEPZ 191100
TAFELP
TAF
KELP 191120Z 1912/2012 27010KT P6SM SKC
     FM191700 27010G18KT P6SM SCT100
     FM200200 28010KT P6SM SCT100 BKN140=

USA.gov is the U.S. government's official web portal to all federal, state and local government web resources and services.